Time;durP1;ratioP1;P1;durP2;ratioP2;P2;SDS_P1;SDS_P2;PMS_P1;PMS_P2;Temp;Humidity;BMP_temperature;BMP_pressure;BME280_temperature;BME280_humidity;BME280_pressure;Samples;Min_cycle;Max_cycle;Signal;HPM_P1;HPM_P2
2021/12/23 00:01:40;;;;;;;11.75;8.77;;;;;;;;;;5032620;28;20021;-76
2021/12/23 00:04:09;;;;;;;13.52;9.55;;;;;;;;;;5050748;28;20098;-76
2021/12/23 00:06:35;;;;;;;12.35;9.52;;;;;;;;;;5033116;28;20071;-76
2021/12/23 00:09:03;;;;;;;13.32;9.88;;;;;;;;;;5050949;28;20039;-76
2021/12/23 00:11:30;;;;;;;13.13;9.52;;;;;;;;;;5050770;28;20083;-76
2021/12/23 00:14:05;;;;;;;12.93;9.45;;;;;;;;;;5050381;28;20111;-76
2021/12/23 00:19:23;;;;;;;12.43;8.98;;;;;;;;;;5050569;28;20036;-76
2021/12/23 00:24:35;;;;;;;11.32;9.05;;;;;;;;;;5051144;28;20033;-76
2021/12/23 00:27:01;;;;;;;14.25;9.57;;;;;;;;;;5050758;28;20054;-76
2021/12/23 00:29:27;;;;;;;12.50;9.05;;;;;;;;;;5050768;28;20029;-76
2021/12/23 00:31:53;;;;;;;13.18;9.43;;;;;;;;;;5053853;28;20051;-76
2021/12/23 00:34:19;;;;;;;12.45;8.63;;;;;;;;;;5036157;28;20443;-76
2021/12/23 00:36:46;;;;;;;13.10;8.95;;;;;;;;;;5053866;28;20057;-76
2021/12/23 00:39:13;;;;;;;11.93;7.75;;;;;;;;;;5054110;28;20035;-76
2021/12/23 00:41:42;;;;;;;13.55;9.50;;;;;;;;;;5053821;28;20017;-77
2021/12/23 00:44:08;;;;;;;11.25;8.32;;;;;;;;;;5053787;28;20550;-77
2021/12/23 00:46:34;;;;;;;11.23;8.40;;;;;;;;;;5036203;28;20476;-77
2021/12/23 00:49:00;;;;;;;12.07;8.57;;;;;;;;;;5053789;28;20029;-77
2021/12/23 00:51:26;;;;;;;13.00;9.40;;;;;;;;;;5053715;28;20052;-77
2021/12/23 00:53:54;;;;;;;12.55;9.50;;;;;;;;;;5051744;28;20025;-77
2021/12/23 00:56:20;;;;;;;12.35;8.70;;;;;;;;;;5053194;28;20419;-77
2021/12/23 00:58:46;;;;;;;12.43;8.45;;;;;;;;;;5053399;28;20032;-77
2021/12/23 01:01:12;;;;;;;12.43;9.20;;;;;;;;;;5053457;28;20071;-77
2021/12/23 01:03:38;;;;;;;11.40;7.85;;;;;;;;;;5053292;28;20025;-77
2021/12/23 01:06:04;;;;;;;13.25;9.13;;;;;;;;;;5053925;28;20392;-77
2021/12/23 01:08:30;;;;;;;11.38;7.95;;;;;;;;;;5035800;28;20503;-77
2021/12/23 01:10:59;;;;;;;11.70;8.48;;;;;;;;;;5035284;28;20099;-77
2021/12/23 01:13:26;;;;;;;11.68;7.80;;;;;;;;;;5035462;28;20450;-77
2021/12/23 01:18:25;;;;;;;12.10;8.77;;;;;;;;;;5053144;28;20044;-77
2021/12/23 01:20:52;;;;;;;10.77;7.65;;;;;;;;;;5053165;28;20028;-77
2021/12/23 01:23:23;;;;;;;12.32;8.38;;;;;;;;;;5035334;28;20082;-77
2021/12/23 01:25:50;;;;;;;11.13;7.97;;;;;;;;;;5035030;28;20029;-77
2021/12/23 01:28:16;;;;;;;12.10;8.13;;;;;;;;;;5035090;28;20100;-77
2021/12/23 01:30:42;;;;;;;12.43;9.25;;;;;;;;;;5052768;28;20108;-78
2021/12/23 01:33:09;;;;;;;13.63;8.98;;;;;;;;;;5053057;28;20078;-78
2021/12/23 01:35:35;;;;;;;11.30;8.18;;;;;;;;;;5053276;28;20025;-77
2021/12/23 01:38:02;;;;;;;12.27;8.98;;;;;;;;;;5053279;28;20096;-77
2021/12/23 01:40:28;;;;;;;12.30;8.98;;;;;;;;;;5052851;28;20469;-77
2021/12/23 01:42:55;;;;;;;12.50;8.95;;;;;;;;;;5051928;28;20060;-77
2021/12/23 01:45:24;;;;;;;12.32;8.70;;;;;;;;;;5052515;28;20480;-77
2021/12/23 01:47:50;;;;;;;10.57;8.50;;;;;;;;;;5052515;28;20396;-77
2021/12/23 01:50:17;;;;;;;12.38;8.02;;;;;;;;;;5052718;28;20036;-77
2021/12/23 01:52:43;;;;;;;11.52;7.90;;;;;;;;;;5052408;28;20025;-77
2021/12/23 01:55:10;;;;;;;12.18;9.05;;;;;;;;;;5052486;28;20104;-77
2021/12/23 01:57:39;;;;;;;13.80;8.82;;;;;;;;;;5034415;28;20484;-78
2021/12/23 02:00:07;;;;;;;13.55;9.25;;;;;;;;;;5052764;28;20552;-77
2021/12/23 02:02:33;;;;;;;12.70;8.52;;;;;;;;;;5052669;28;20028;-77
2021/12/23 02:04:59;;;;;;;13.25;9.57;;;;;;;;;;5052143;28;20028;-77
2021/12/23 02:07:25;;;;;;;12.55;8.57;;;;;;;;;;5052315;28;20389;-77
2021/12/23 02:09:51;;;;;;;10.23;7.60;;;;;;;;;;5052022;28;20507;-77
2021/12/23 02:12:17;;;;;;;11.05;8.63;;;;;;;;;;5052229;28;20061;-77
2021/12/23 02:14:43;;;;;;;11.90;8.63;;;;;;;;;;5051946;28;20542;-77
2021/12/23 02:17:10;;;;;;;14.82;9.40;;;;;;;;;;5052215;28;20096;-77
2021/12/23 02:19:36;;;;;;;11.15;8.20;;;;;;;;;;5051957;28;20025;-77
2021/12/23 02:22:02;;;;;;;13.38;8.82;;;;;;;;;;5052337;28;20271;-77
2021/12/23 02:24:28;;;;;;;13.80;9.30;;;;;;;;;;5051937;28;20145;-77
2021/12/23 02:26:54;;;;;;;12.30;8.77;;;;;;;;;;5051584;28;20074;-77
2021/12/23 02:29:20;;;;;;;11.55;8.57;;;;;;;;;;5051910;28;20063;-78
2021/12/23 02:31:50;;;;;;;10.55;7.82;;;;;;;;;;5033805;28;20017;-78
2021/12/23 02:34:16;;;;;;;11.77;8.10;;;;;;;;;;5051871;28;20108;-78
2021/12/23 02:36:42;;;;;;;10.85;8.05;;;;;;;;;;5051602;28;20025;-78
2021/12/23 02:39:08;;;;;;;12.63;8.60;;;;;;;;;;5051756;28;20033;-78
2021/12/23 02:41:40;;;;;;;12.63;8.80;;;;;;;;;;5051980;28;20361;-78
2021/12/23 02:44:06;;;;;;;10.95;8.13;;;;;;;;;;5051629;28;20037;-77
2021/12/23 02:46:34;;;;;;;13.38;9.13;;;;;;;;;;5034083;28;20025;-77
2021/12/23 02:49:00;;;;;;;12.52;8.35;;;;;;;;;;5051837;28;20040;-77
2021/12/23 02:51:26;;;;;;;15.00;10.05;;;;;;;;;;5051450;28;20021;-78
2021/12/23 02:53:52;;;;;;;14.23;9.25;;;;;;;;;;5032532;28;20025;-78
2021/12/23 02:56:18;;;;;;;11.10;7.03;;;;;;;;;;5051453;28;20384;-78
2021/12/23 02:58:45;;;;;;;10.30;7.50;;;;;;;;;;5033273;28;20031;-77
2021/12/23 03:01:12;;;;;;;13.55;8.35;;;;;;;;;;5051381;28;20052;-77
2021/12/23 03:03:38;;;;;;;12.00;8.32;;;;;;;;;;5051175;28;20025;-78
2021/12/23 03:06:04;;;;;;;12.35;8.48;;;;;;;;;;5033759;28;20384;-77
2021/12/23 03:08:32;;;;;;;12.27;8.98;;;;;;;;;;5051599;28;20041;-77
2021/12/23 03:10:58;;;;;;;11.05;7.80;;;;;;;;;;5050836;28;20029;-77
2021/12/23 03:13:25;;;;;;;12.85;8.18;;;;;;;;;;5051157;28;20083;-78
2021/12/23 03:15:51;;;;;;;10.93;7.50;;;;;;;;;;5050940;28;20056;-78
2021/12/23 03:18:17;;;;;;;10.32;7.50;;;;;;;;;;5051174;28;20087;-78
2021/12/23 03:20:43;;;;;;;11.38;8.38;;;;;;;;;;5050767;28;20024;-78
2021/12/23 03:23:09;;;;;;;11.43;8.30;;;;;;;;;;5033231;28;20349;-78
2021/12/23 03:25:35;;;;;;;12.23;8.27;;;;;;;;;;5051080;28;20029;-77
2021/12/23 03:28:01;;;;;;;10.50;7.88;;;;;;;;;;5051295;28;20033;-78
2021/12/23 03:30:27;;;;;;;11.80;7.68;;;;;;;;;;5051091;28;20115;-78
2021/12/23 03:32:53;;;;;;;11.10;8.20;;;;;;;;;;5050760;28;20025;-78
2021/12/23 03:35:19;;;;;;;12.20;7.72;;;;;;;;;;5050892;28;20017;-78
2021/12/23 03:37:45;;;;;;;10.65;7.85;;;;;;;;;;5050814;28;20032;-78
2021/12/23 03:40:11;;;;;;;11.38;8.40;;;;;;;;;;5050957;28;20480;-78
2021/12/23 03:42:39;;;;;;;12.48;8.93;;;;;;;;;;5050649;28;20036;-78
2021/12/23 03:45:07;;;;;;;14.10;9.07;;;;;;;;;;5051077;28;20118;-78
2021/12/23 03:47:33;;;;;;;12.77;8.70;;;;;;;;;;5051074;28;20025;-78
2021/12/23 03:49:59;;;;;;;10.52;7.97;;;;;;;;;;5050679;28;20025;-78
2021/12/23 03:52:25;;;;;;;11.80;8.38;;;;;;;;;;5050857;28;20033;-78
2021/12/23 03:54:51;;;;;;;13.32;8.40;;;;;;;;;;5050571;28;20025;-77
2021/12/23 03:57:17;;;;;;;10.48;7.93;;;;;;;;;;5050825;28;20047;-78
2021/12/23 03:59:44;;;;;;;12.07;8.50;;;;;;;;;;5050560;28;20017;-78
2021/12/23 04:02:10;;;;;;;10.93;7.63;;;;;;;;;;5050606;28;20029;-78
2021/12/23 04:04:36;;;;;;;10.18;7.00;;;;;;;;;;5050988;28;20025;-78
2021/12/23 04:07:02;;;;;;;10.98;7.95;;;;;;;;;;5054893;28;20029;-78
2021/12/23 04:09:28;;;;;;;10.70;7.50;;;;;;;;;;5054632;28;20396;-77
2021/12/23 04:11:54;;;;;;;11.07;8.13;;;;;;;;;;5054354;28;20028;-77
2021/12/23 04:14:21;;;;;;;11.65;8.18;;;;;;;;;;5054563;28;20036;-77
2021/12/23 04:16:47;;;;;;;11.70;7.55;;;;;;;;;;5054215;28;20021;-77
2021/12/23 04:19:13;;;;;;;11.85;8.07;;;;;;;;;;5036466;28;20029;-77
2021/12/23 04:21:39;;;;;;;10.68;7.47;;;;;;;;;;5054155;28;20369;-77
2021/12/23 04:24:06;;;;;;;11.20;7.80;;;;;;;;;;5054257;28;20029;-76
2021/12/23 04:26:32;;;;;;;11.00;8.23;;;;;;;;;;5054689;28;20384;-77
2021/12/23 04:28:58;;;;;;;9.85;7.68;;;;;;;;;;5035994;28;20090;-77
2021/12/23 04:31:25;;;;;;;12.45;8.40;;;;;;;;;;5054132;28;20017;-77
2021/12/23 04:33:51;;;;;;;11.02;7.95;;;;;;;;;;5053889;28;20024;-79
2021/12/23 04:36:18;;;;;;;11.75;8.20;;;;;;;;;;5054037;28;20025;-78
2021/12/23 04:38:45;;;;;;;10.35;7.75;;;;;;;;;;5053774;28;20071;-78
2021/12/23 04:41:11;;;;;;;12.82;7.97;;;;;;;;;;5054062;28;20035;-77
2021/12/23 04:43:37;;;;;;;11.25;8.07;;;;;;;;;;5053613;28;20549;-78
2021/12/23 04:46:04;;;;;;;11.30;7.35;;;;;;;;;;5036227;28;20048;-78
2021/12/23 04:48:31;;;;;;;12.35;7.93;;;;;;;;;;5054104;28;20064;-78
2021/12/23 04:50:57;;;;;;;12.50;7.80;;;;;;;;;;5053603;28;20104;-78
2021/12/23 04:53:23;;;;;;;9.80;7.03;;;;;;;;;;5053774;28;20025;-79
2021/12/23 04:55:49;;;;;;;10.98;7.68;;;;;;;;;;5053509;28;20392;-79
2021/12/23 04:58:15;;;;;;;11.13;8.15;;;;;;;;;;5053657;28;20028;-78
2021/12/23 05:00:42;;;;;;;12.23;7.80;;;;;;;;;;5053346;28;20032;-78
2021/12/23 05:03:09;;;;;;;11.68;8.82;;;;;;;;;;5035677;28;20123;-78
2021/12/23 05:05:36;;;;;;;11.05;8.48;;;;;;;;;;5053815;28;20021;-77
2021/12/23 05:08:02;;;;;;;11.65;8.27;;;;;;;;;;5035861;28;20037;-78
2021/12/23 05:10:28;;;;;;;11.40;7.78;;;;;;;;;;5053396;28;20029;-78
2021/12/23 05:12:55;;;;;;;12.45;8.70;;;;;;;;;;5053101;28;20029;-78
2021/12/23 05:15:21;;;;;;;12.82;8.65;;;;;;;;;;5035394;28;20021;-78
2021/12/23 05:17:48;;;;;;;13.10;8.07;;;;;;;;;;5052147;28;20495;-78
2021/12/23 05:20:15;;;;;;;12.65;8.48;;;;;;;;;;5053290;28;20028;-79
2021/12/23 05:22:41;;;;;;;11.95;8.48;;;;;;;;;;5053122;28;20045;-80
2021/12/23 05:25:07;;;;;;;12.52;8.68;;;;;;;;;;5035294;28;20507;-79
2021/12/23 05:27:33;;;;;;;11.07;7.82;;;;;;;;;;5053278;28;20112;-77
2021/12/23 05:30:01;;;;;;;11.68;8.07;;;;;;;;;;5052875;28;20025;-77
2021/12/23 05:32:27;;;;;;;9.65;7.43;;;;;;;;;;5053015;28;20056;-78
2021/12/23 05:34:53;;;;;;;14.15;8.50;;;;;;;;;;5052731;28;20511;-79
2021/12/23 05:37:19;;;;;;;12.30;8.90;;;;;;;;;;5035054;28;20434;-78
2021/12/23 05:39:45;;;;;;;12.70;8.35;;;;;;;;;;5034842;28;20017;-78
2021/12/23 05:42:11;;;;;;;10.65;7.78;;;;;;;;;;5052855;28;20025;-78
2021/12/23 05:44:37;;;;;;;11.15;7.75;;;;;;;;;;5052478;28;20033;-78
2021/12/23 05:47:04;;;;;;;10.13;7.85;;;;;;;;;;5052929;28;20036;-79
2021/12/23 05:49:30;;;;;;;11.43;7.90;;;;;;;;;;5052654;28;20055;-79
2021/12/23 05:51:56;;;;;;;11.85;8.23;;;;;;;;;;5034476;28;20029;-78
2021/12/23 05:54:23;;;;;;;11.95;7.57;;;;;;;;;;5052518;28;20035;-79
2021/12/23 05:56:49;;;;;;;11.70;7.88;;;;;;;;;;5052323;28;20108;-78
2021/12/23 05:59:15;;;;;;;11.30;7.97;;;;;;;;;;5034533;28;20033;-79
2021/12/23 06:01:41;;;;;;;9.23;7.13;;;;;;;;;;5034146;28;20057;-78
2021/12/23 06:04:07;;;;;;;13.90;8.25;;;;;;;;;;5034524;28;20025;-78
2021/12/23 06:06:34;;;;;;;10.25;7.80;;;;;;;;;;5034801;28;20029;-79
2021/12/23 06:09:00;;;;;;;11.48;7.90;;;;;;;;;;5034186;28;20059;-78
2021/12/23 06:11:26;;;;;;;11.07;8.02;;;;;;;;;;5034407;28;20029;-78
2021/12/23 06:13:52;;;;;;;10.32;7.55;;;;;;;;;;5034122;28;20103;-78
2021/12/23 06:16:18;;;;;;;10.90;7.07;;;;;;;;;;5052136;28;20025;-78
2021/12/23 06:18:44;;;;;;;10.48;7.40;;;;;;;;;;5033996;28;20025;-78
2021/12/23 06:21:10;;;;;;;11.93;8.23;;;;;;;;;;5052142;28;20025;-78
2021/12/23 06:23:36;;;;;;;11.45;8.07;;;;;;;;;;5051734;28;20484;-78
2021/12/23 06:26:02;;;;;;;11.60;7.63;;;;;;;;;;5038787;28;20033;-78
2021/12/23 06:28:28;;;;;;;9.82;7.03;;;;;;;;;;5051557;28;20477;-78
2021/12/23 06:30:54;;;;;;;10.52;7.18;;;;;;;;;;5051410;28;20391;-78
2021/12/23 06:33:20;;;;;;;11.20;7.70;;;;;;;;;;5051855;28;20017;-81
2021/12/23 06:35:46;;;;;;;10.32;7.18;;;;;;;;;;5051624;28;20036;-80
2021/12/23 06:38:12;;;;;;;9.93;7.03;;;;;;;;;;5051484;28;20028;-80
2021/12/23 06:40:39;;;;;;;14.30;7.25;;;;;;;;;;5051087;28;20399;-80
2021/12/23 06:43:05;;;;;;;9.20;6.45;;;;;;;;;;5046421;28;20032;-79
2021/12/23 06:45:31;;;;;;;10.00;6.95;;;;;;;;;;5016737;28;20036;-79
2021/12/23 06:47:57;;;;;;;10.25;7.68;;;;;;;;;;5034665;28;20033;-79
2021/12/23 06:50:23;;;;;;;11.52;7.70;;;;;;;;;;5050363;28;20025;-81
2021/12/23 06:52:50;;;;;;;11.05;6.55;;;;;;;;;;5051062;28;20029;-80
2021/12/23 06:55:17;;;;;;;11.20;8.15;;;;;;;;;;5051478;28;20053;-82
2021/12/23 06:57:43;;;;;;;10.65;7.40;;;;;;;;;;5051173;28;20036;-80
2021/12/23 07:00:14;;;;;;;11.65;7.63;;;;;;;;;;5046213;28;20021;-81
2021/12/23 07:02:40;;;;;;;9.20;6.63;;;;;;;;;;5031173;28;20044;-80
2021/12/23 07:05:07;;;;;;;9.23;6.60;;;;;;;;;;5031503;28;20469;-80
2021/12/23 07:07:41;;;;;;;10.38;6.93;;;;;;;;;;5031359;28;20026;-80
2021/12/23 07:10:08;;;;;;;9.40;6.88;;;;;;;;;;5031378;28;20029;-81
2021/12/23 07:12:34;;;;;;;10.43;7.18;;;;;;;;;;5013885;28;20030;-81
2021/12/23 07:15:00;;;;;;;10.05;7.25;;;;;;;;;;5031364;28;20036;-81
2021/12/23 07:17:26;;;;;;;9.95;6.55;;;;;;;;;;5031242;28;20030;-82
2021/12/23 07:19:52;;;;;;;10.57;7.45;;;;;;;;;;5030483;28;20033;-81
2021/12/23 07:22:18;;;;;;;9.40;7.15;;;;;;;;;;5013091;28;20030;-82
2021/12/23 07:24:44;;;;;;;9.95;6.93;;;;;;;;;;5030904;28;20074;-82
2021/12/23 07:27:10;;;;;;;10.65;6.60;;;;;;;;;;5030940;28;20179;-80
2021/12/23 07:29:37;;;;;;;8.98;6.32;;;;;;;;;;5013004;28;20486;-80
2021/12/23 07:32:05;;;;;;;10.80;6.95;;;;;;;;;;5015869;28;20033;-80
2021/12/23 07:34:31;;;;;;;9.77;7.28;;;;;;;;;;5035491;28;20112;-80
2021/12/23 07:36:57;;;;;;;11.07;7.97;;;;;;;;;;5016948;28;20024;-80
2021/12/23 07:39:23;;;;;;;11.95;7.70;;;;;;;;;;5037662;28;20498;-80
2021/12/23 07:41:49;;;;;;;10.00;6.63;;;;;;;;;;5043334;28;20033;-80
2021/12/23 07:44:20;;;;;;;8.23;6.47;;;;;;;;;;5049320;28;20060;-80
2021/12/23 07:46:47;;;;;;;9.63;7.10;;;;;;;;;;5037508;28;20421;-79
2021/12/23 07:49:13;;;;;;;12.35;7.95;;;;;;;;;;5017169;28;20456;-79
2021/12/23 07:51:39;;;;;;;9.65;7.22;;;;;;;;;;5016963;28;20084;-79
2021/12/23 07:54:06;;;;;;;11.52;7.32;;;;;;;;;;5034853;28;20026;-79
2021/12/23 07:56:32;;;;;;;11.07;7.90;;;;;;;;;;5035141;28;20030;-80
2021/12/23 07:58:58;;;;;;;11.07;7.85;;;;;;;;;;5034727;28;20028;-80
2021/12/23 08:01:24;;;;;;;11.20;8.27;;;;;;;;;;5034793;28;20029;-80
2021/12/23 08:03:50;;;;;;;12.13;7.88;;;;;;;;;;5016654;28;20018;-78
2021/12/23 08:06:18;;;;;;;11.15;7.82;;;;;;;;;;5034732;28;20033;-83
2021/12/23 08:08:44;;;;;;;11.70;8.10;;;;;;;;;;5016607;28;20034;-79
2021/12/23 08:11:10;;;;;;;11.73;8.10;;;;;;;;;;5034684;28;20504;-83
2021/12/23 08:13:37;;;;;;;11.10;8.23;;;;;;;;;;5042675;28;20036;-84
2021/12/23 08:16:03;;;;;;;14.20;8.00;;;;;;;;;;5054979;28;20036;-87
2021/12/23 08:18:30;;;;;;;9.80;7.45;;;;;;;;;;5050632;28;20017;-82
2021/12/23 08:20:56;;;;;;;11.18;8.57;;;;;;;;;;5023236;28;20045;-81
2021/12/23 08:23:22;;;;;;;11.57;8.32;;;;;;;;;;5034230;28;20508;-81
2021/12/23 08:25:48;;;;;;;11.50;8.30;;;;;;;;;;5038021;28;20030;-82
2021/12/23 08:28:14;;;;;;;13.63;7.75;;;;;;;;;;5023907;28;20420;-81
2021/12/23 08:30:41;;;;;;;12.68;7.95;;;;;;;;;;5026148;28;20439;-83
2021/12/23 08:33:07;;;;;;;10.52;7.30;;;;;;;;;;5025767;28;20389;-83
2021/12/23 08:35:34;;;;;;;11.20;8.02;;;;;;;;;;5054354;28;20036;-85
2021/12/23 08:38:00;;;;;;;9.35;6.97;;;;;;;;;;5036316;28;20455;-91
2021/12/23 08:40:27;;;;;;;11.13;7.57;;;;;;;;;;5046177;28;20021;-84
2021/12/23 08:42:56;;;;;;;11.18;7.28;;;;;;;;;;5052726;28;20025;-90
2021/12/23 08:45:22;;;;;;;11.00;7.57;;;;;;;;;;5052924;28;20063;-77
2021/12/23 08:47:48;;;;;;;11.52;8.00;;;;;;;;;;5033165;28;20409;-80
2021/12/23 08:50:15;;;;;;;11.98;7.57;;;;;;;;;;5041292;28;20036;-79
2021/12/23 08:52:41;;;;;;;12.90;8.95;;;;;;;;;;5043550;28;20094;-79
2021/12/23 08:55:08;;;;;;;12.82;7.72;;;;;;;;;;5042979;28;20060;-79
2021/12/23 08:57:34;;;;;;;13.25;8.50;;;;;;;;;;5041244;28;20025;-79
2021/12/23 09:00:01;;;;;;;15.05;8.10;;;;;;;;;;5042415;28;20021;-81
2021/12/23 09:02:27;;;;;;;13.80;8.88;;;;;;;;;;5042388;28;20068;-80
2021/12/23 09:04:53;;;;;;;10.75;7.57;;;;;;;;;;5040405;28;20443;-80
2021/12/23 09:07:19;;;;;;;11.65;7.95;;;;;;;;;;5042269;28;20500;-80
2021/12/23 09:09:50;;;;;;;9.88;7.18;;;;;;;;;;5041896;28;20017;-80
2021/12/23 09:12:17;;;;;;;12.55;8.35;;;;;;;;;;5042775;28;20017;-79
2021/12/23 09:14:43;;;;;;;9.63;7.32;;;;;;;;;;5041454;28;20457;-80
2021/12/23 09:17:09;;;;;;;10.73;6.63;;;;;;;;;;5041820;28;20049;-79
2021/12/23 09:19:35;;;;;;;9.85;6.70;;;;;;;;;;5040468;28;20481;-78
2021/12/23 09:22:02;;;;;;;9.57;6.38;;;;;;;;;;5043367;28;20040;-78
2021/12/23 09:24:28;;;;;;;10.00;6.57;;;;;;;;;;5052913;28;20029;-80
2021/12/23 09:27:05;;;;;;;11.73;6.93;;;;;;;;;;5052836;28;20025;-76
2021/12/23 09:34:55;;;;;;;9.00;6.57;;;;;;;;;;5053013;28;20554;-85
2021/12/23 09:37:22;;;;;;;9.75;6.80;;;;;;;;;;5035070;28;20025;-81
2021/12/23 09:39:56;;;;;;;9.93;6.85;;;;;;;;;;5026822;28;20029;-80
2021/12/23 09:42:26;;;;;;;12.35;6.50;;;;;;;;;;5041268;28;20013;-80
2021/12/23 09:44:57;;;;;;;10.80;5.93;;;;;;;;;;5039567;28;20037;-81
2021/12/23 09:47:25;;;;;;;9.23;6.20;;;;;;;;;;5032926;28;20040;-81
2021/12/23 09:49:51;;;;;;;12.30;6.57;;;;;;;;;;5014758;28;20075;-80
2021/12/23 09:52:17;;;;;;;8.13;5.60;;;;;;;;;;5040670;28;20070;-77
2021/12/23 09:54:44;;;;;;;11.27;6.47;;;;;;;;;;5046445;28;20033;-78
2021/12/23 09:57:10;;;;;;;11.07;6.95;;;;;;;;;;5052167;28;20028;-78
2021/12/23 09:59:36;;;;;;;9.35;6.47;;;;;;;;;;5052240;28;20025;-78
2021/12/23 10:02:02;;;;;;;13.05;6.85;;;;;;;;;;5051430;28;20029;-78
2021/12/23 10:04:28;;;;;;;8.93;6.00;;;;;;;;;;5051890;28;20025;-78
2021/12/23 10:06:57;;;;;;;10.68;6.70;;;;;;;;;;5051952;28;20029;-78
2021/12/23 10:31:33;;;;;;;10.85;6.53;;;;;;;;;;5052129;28;19931;-78
2021/12/23 10:37:13;;;;;;;10.65;7.35;;;;;;;;;;5051603;28;20017;-78
2021/12/23 10:37:14;;;;;;;12.52;7.13;;;;;;;;;;5051309;28;20033;-78
2021/12/23 10:39:46;;;;;;;9.35;6.82;;;;;;;;;;5033590;28;20031;-78
2021/12/23 10:42:17;;;;;;;11.07;6.78;;;;;;;;;;5051636;28;20021;-78
2021/12/23 10:44:54;;;;;;;10.68;7.90;;;;;;;;;;5051327;28;20041;-78
2021/12/23 10:47:31;;;;;;;11.40;7.65;;;;;;;;;;5033616;28;20037;-78
2021/12/23 10:50:12;;;;;;;11.45;7.25;;;;;;;;;;5051384;28;20021;-78
2021/12/23 10:52:48;;;;;;;9.35;7.25;;;;;;;;;;5051117;28;20060;-77
2021/12/23 10:58:05;;;;;;;9.30;7.53;;;;;;;;;;5035331;28;20033;-77
2021/12/23 11:00:31;;;;;;;9.48;6.68;;;;;;;;;;5014682;28;20397;-76
2021/12/23 11:03:22;;;;;;;10.30;6.90;;;;;;;;;;5041489;28;20025;-76
2021/12/23 11:06:03;;;;;;;10.02;7.13;;;;;;;;;;5033236;28;20071;-78
2021/12/23 11:38:32;;;;;;;26.15;13.88;;;;;;;;;;5039962;28;20032;-78
2021/12/23 11:41:05;;;;;;;21.75;12.30;;;;;;;;;;5022569;28;20020;-79
2021/12/23 11:43:50;;;;;;;17.98;11.05;;;;;;;;;;5018024;28;20017;-78
2021/12/23 11:46:19;;;;;;;21.30;10.70;;;;;;;;;;5040424;28;20025;-77
2021/12/23 11:48:47;;;;;;;15.80;9.60;;;;;;;;;;5020997;28;20076;-78
2021/12/23 11:51:28;;;;;;;16.80;8.93;;;;;;;;;;5038615;28;20028;-78
2021/12/23 11:53:54;;;;;;;19.23;9.55;;;;;;;;;;5042315;28;20032;-78
2021/12/23 11:56:21;;;;;;;17.38;9.00;;;;;;;;;;5036152;28;20105;-77
2021/12/23 11:58:48;;;;;;;15.73;8.68;;;;;;;;;;5041915;28;20033;-78
2021/12/23 12:01:19;;;;;;;16.88;8.95;;;;;;;;;;5042216;28;20052;-77
2021/12/23 12:04:02;;;;;;;15.75;8.27;;;;;;;;;;5032900;28;20041;-78
2021/12/23 12:06:45;;;;;;;13.55;8.35;;;;;;;;;;5028679;28;20025;-78
2021/12/23 12:09:18;;;;;;;13.50;8.50;;;;;;;;;;5020280;28;20040;-78
2021/12/23 12:12:07;;;;;;;15.63;9.02;;;;;;;;;;5030619;28;20076;-80
2021/12/23 12:14:40;;;;;;;17.30;9.52;;;;;;;;;;5040354;28;20532;-77
2021/12/23 12:17:27;;;;;;;14.82;9.00;;;;;;;;;;5038099;28;20017;-77
2021/12/23 12:20:14;;;;;;;11.68;7.93;;;;;;;;;;5025728;28;20124;-78
2021/12/23 12:22:49;;;;;;;15.70;8.77;;;;;;;;;;5049661;28;20021;-78
2021/12/23 12:25:24;;;;;;;18.63;8.37;;;;;;;;;;5038782;28;20028;-80
2021/12/23 12:28:10;;;;;;;14.32;8.85;;;;;;;;;;5042687;28;20032;-82
2021/12/23 12:30:36;;;;;;;;;;;;;;;;;;5044528;28;20112;-81
2021/12/23 12:33:03;;;;;;;12.48;8.18;;;;;;;;;;5043876;28;19964;-81
2021/12/23 12:35:29;;;;;;;11.35;7.35;;;;;;;;;;5041862;28;20013;-79
2021/12/23 12:38:10;;;;;;;14.10;8.75;;;;;;;;;;5042058;28;20032;-81
2021/12/23 12:40:54;;;;;;;12.00;7.25;;;;;;;;;;5045563;28;20025;-83
2021/12/23 12:43:41;;;;;;;13.93;7.90;;;;;;;;;;5047548;28;20033;-82
2021/12/23 12:46:09;;;;;;;11.95;7.63;;;;;;;;;;5042398;28;20029;-82
2021/12/23 12:48:53;;;;;;;13.23;7.93;;;;;;;;;;5043304;28;20040;-81
2021/12/23 12:51:20;;;;;;;12.75;8.10;;;;;;;;;;5042790;28;20028;-83
2021/12/23 12:53:56;;;;;;;12.93;7.55;;;;;;;;;;5036259;28;20088;-83
2021/12/23 12:56:23;;;;;;;12.30;7.72;;;;;;;;;;5041087;28;20104;-83
2021/12/23 12:58:52;;;;;;;12.93;8.15;;;;;;;;;;5047147;28;20034;-82
2021/12/23 13:01:32;;;;;;;12.85;7.60;;;;;;;;;;5031571;28;20021;-83
2021/12/23 13:03:59;;;;;;;14.10;8.75;;;;;;;;;;5042879;28;20021;-86
2021/12/23 13:06:36;;;;;;;13.52;8.48;;;;;;;;;;5041988;28;20029;-86
2021/12/23 13:09:03;;;;;;;11.35;7.38;;;;;;;;;;5023914;28;20033;-81
2021/12/23 13:11:30;;;;;;;15.30;8.98;;;;;;;;;;5043717;28;20501;-85
2021/12/23 13:14:04;;;;;;;12.60;7.53;;;;;;;;;;5040567;28;20068;-81
2021/12/23 13:16:30;;;;;;;10.88;7.47;;;;;;;;;;5023654;28;20013;-84
2021/12/23 13:19:12;;;;;;;11.80;7.70;;;;;;;;;;5042454;28;20029;-80
2021/12/23 13:21:42;;;;;;;15.98;8.32;;;;;;;;;;5042513;28;20112;-83
2021/12/23 13:24:11;;;;;;;13.10;7.65;;;;;;;;;;5041957;28;20071;-82
2021/12/23 13:26:37;;;;;;;12.30;7.32;;;;;;;;;;5040367;28;20025;-82
2021/12/23 13:29:04;;;;;;;18.58;7.60;;;;;;;;;;5042156;28;20036;-82
2021/12/23 13:31:35;;;;;;;16.75;8.43;;;;;;;;;;5042387;28;20481;-81
2021/12/23 13:34:01;;;;;;;13.07;8.18;;;;;;;;;;5041050;28;20036;-82
2021/12/23 13:36:34;;;;;;;18.00;8.20;;;;;;;;;;5041284;28;20021;-82
2021/12/23 13:39:10;;;;;;;12.13;8.38;;;;;;;;;;5040135;28;20032;-82
2021/12/23 13:41:39;;;;;;;10.55;6.90;;;;;;;;;;5039981;28;20021;-82
2021/12/23 13:44:24;;;;;;;14.07;8.07;;;;;;;;;;5041311;28;20115;-81
2021/12/23 13:47:08;;;;;;;11.02;7.82;;;;;;;;;;5023702;28;20564;-81
2021/12/23 13:49:51;;;;;;;15.95;8.57;;;;;;;;;;5042464;28;20108;-81
2021/12/23 13:52:26;;;;;;;13.18;7.82;;;;;;;;;;5042108;28;20032;-82
2021/12/23 13:54:59;;;;;;;14.45;7.25;;;;;;;;;;5041734;28;20017;-82
2021/12/23 13:57:26;;;;;;;12.45;8.27;;;;;;;;;;5040908;28;20033;-81
2021/12/23 13:59:53;;;;;;;12.45;8.15;;;;;;;;;;5040154;28;20231;-83
2021/12/23 14:02:21;;;;;;;13.10;8.60;;;;;;;;;;5041914;28;20025;-81
2021/12/23 14:04:51;;;;;;;14.50;9.05;;;;;;;;;;5040786;28;20021;-81
2021/12/23 14:07:22;;;;;;;12.95;8.23;;;;;;;;;;5039876;28;20029;-80
2021/12/23 14:09:50;;;;;;;15.25;9.60;;;;;;;;;;5022630;28;20032;-81
2021/12/23 14:12:19;;;;;;;18.95;9.93;;;;;;;;;;5041583;28;20062;-80
2021/12/23 14:14:53;;;;;;;15.52;9.75;;;;;;;;;;5040237;28;20045;-80
2021/12/23 14:17:48;;;;;;;12.77;8.68;;;;;;;;;;5039747;28;20516;-80
2021/12/23 14:23:14;;;;;;;14.75;9.98;;;;;;;;;;5039355;28;20444;-81
2021/12/23 14:25:45;;;;;;;14.88;10.05;;;;;;;;;;5039078;28;20036;-81
2021/12/23 14:28:12;;;;;;;17.85;9.52;;;;;;;;;;5031922;28;20042;-81
2021/12/23 14:30:40;;;;;;;15.25;9.32;;;;;;;;;;5031772;28;20029;-84
2021/12/23 14:33:11;;;;;;;14.90;9.18;;;;;;;;;;5044743;28;20059;-81
2021/12/23 14:35:37;;;;;;;13.90;9.05;;;;;;;;;;5041109;28;20029;-79
2021/12/23 14:38:03;;;;;;;15.88;9.48;;;;;;;;;;5040270;28;20093;-80
2021/12/23 14:40:29;;;;;;;15.98;9.07;;;;;;;;;;5039771;28;20021;-81
2021/12/23 14:43:03;;;;;;;14.85;9.23;;;;;;;;;;5040876;28;20078;-81
2021/12/23 14:45:29;;;;;;;15.25;9.32;;;;;;;;;;5040593;28;20036;-81
2021/12/23 14:48:00;;;;;;;14.90;9.20;;;;;;;;;;5038706;28;20104;-81
2021/12/23 14:50:36;;;;;;;12.68;8.90;;;;;;;;;;5040054;28;20036;-80
2021/12/23 14:53:02;;;;;;;14.00;9.57;;;;;;;;;;5041356;28;20028;-80
2021/12/23 14:55:32;;;;;;;13.82;9.45;;;;;;;;;;5040292;28;20390;-80
2021/12/23 14:57:59;;;;;;;12.05;8.45;;;;;;;;;;5039080;28;20028;-80
2021/12/23 15:00:28;;;;;;;14.82;9.30;;;;;;;;;;5039843;28;20499;-80
2021/12/23 15:03:07;;;;;;;15.32;9.52;;;;;;;;;;5040532;28;20543;-80
2021/12/23 15:05:35;;;;;;;15.38;9.60;;;;;;;;;;5040990;28;20024;-79
2021/12/23 15:08:03;;;;;;;13.40;9.00;;;;;;;;;;5039426;28;20040;-80
2021/12/23 15:10:38;;;;;;;17.55;8.90;;;;;;;;;;5039348;28;20017;-79
2021/12/23 15:13:23;;;;;;;14.68;8.90;;;;;;;;;;5042725;28;20082;-80
2021/12/23 15:15:56;;;;;;;14.77;9.07;;;;;;;;;;5051498;28;20023;-80
2021/12/23 15:18:30;;;;;;;18.35;8.57;;;;;;;;;;5051517;28;20025;-79
2021/12/23 15:20:57;;;;;;;13.02;9.00;;;;;;;;;;5051843;28;20014;-80
2021/12/23 15:23:41;;;;;;;12.45;8.75;;;;;;;;;;5042920;28;20029;-79
2021/12/23 15:26:24;;;;;;;15.05;9.35;;;;;;;;;;5043705;28;20028;-79
2021/12/23 15:29:23;;;;;;;15.55;9.45;;;;;;;;;;5049884;28;20103;-79
2021/12/23 15:31:56;;;;;;;14.93;9.27;;;;;;;;;;4996162;28;20047;-80
2021/12/23 15:34:23;;;;;;;13.93;9.30;;;;;;;;;;5062676;28;20063;-79
2021/12/23 15:36:49;;;;;;;12.02;8.45;;;;;;;;;;5052205;28;20108;-79
2021/12/23 15:39:15;;;;;;;13.18;9.10;;;;;;;;;;5048743;28;20021;-79
2021/12/23 15:41:41;;;;;;;16.55;9.55;;;;;;;;;;5043524;28;20373;-80
2021/12/23 15:44:07;;;;;;;14.30;8.52;;;;;;;;;;5049702;28;20044;-79
2021/12/23 15:46:33;;;;;;;13.30;9.13;;;;;;;;;;5046581;28;20025;-79
2021/12/23 15:48:59;;;;;;;13.63;8.63;;;;;;;;;;5052197;28;20044;-81
2021/12/23 15:51:25;;;;;;;17.50;10.57;;;;;;;;;;5051234;28;20032;-80